Time;durP1;ratioP1;P1;durP2;ratioP2;P2;SDS_P1;SDS_P2;PMS_P1;PMS_P2;Temp;Humidity;BMP_temperature;BMP_pressure;BME280_temperature;BME280_humidity;BME280_pressure;Samples;Min_cycle;Max_cycle;Signal;HPM_P1;HPM_P2
2021/06/10 00:01:55;;;;;;;9.48;7.15;;;;;;;20.76;60.43;100219.47;5054498;28;20048;-75
2021/06/10 00:04:23;;;;;;;9.80;7.10;;;;;;;20.78;60.49;100217.44;5054162;28;20110;-75
2021/06/10 00:06:50;;;;;;;9.20;6.88;;;;;;;20.95;59.81;100210.28;5054603;28;20041;-75
2021/06/10 00:09:18;;;;;;;10.13;7.95;;;;;;;20.85;60.31;100207.66;5054364;28;20429;-76
2021/06/10 00:11:48;;;;;;;10.35;6.70;;;;;;;20.88;60.08;100201.91;5054400;28;20052;-76
2021/06/10 00:14:18;;;;;;;11.32;7.13;;;;;;;20.72;60.91;100213.50;5054221;28;20095;-74
2021/06/10 00:16:46;;;;;;;10.20;7.03;;;;;;;20.80;60.62;100215.41;5054135;28;20052;-75
2021/06/10 00:19:14;;;;;;;8.27;6.82;;;;;;;20.84;60.73;100208.66;5053457;28;20118;-75
2021/06/10 00:21:42;;;;;;;10.80;7.45;;;;;;;20.86;60.19;100206.66;5054216;28;20045;-75
2021/06/10 00:24:11;;;;;;;11.55;7.25;;;;;;;20.84;60.51;100200.53;5053427;28;20486;-75
2021/06/10 00:26:39;;;;;;;9.30;7.30;;;;;;;20.90;60.91;100204.47;5053488;28;20052;-76
2021/06/10 00:29:08;;;;;;;9.13;7.60;;;;;;;20.96;60.72;100210.13;5053894;28;20123;-76
2021/06/10 00:31:36;;;;;;;9.82;7.05;;;;;;;20.94;60.67;100200.41;5053779;28;20422;-76
2021/06/10 00:34:04;;;;;;;8.77;7.00;;;;;;;20.95;60.70;100197.56;5053946;28;20120;-76
2021/06/10 00:36:32;;;;;;;8.25;7.05;;;;;;;20.85;61.41;100196.81;5053585;28;20052;-76
2021/06/10 00:39:00;;;;;;;11.13;7.13;;;;;;;20.80;61.50;100199.16;5053968;28;20509;-74
2021/06/10 00:41:31;;;;;;;11.90;7.78;;;;;;;20.71;61.79;100186.56;5053493;28;20047;-75
2021/06/10 00:44:00;;;;;;;11.68;7.40;;;;;;;20.79;61.49;100192.88;5053639;28;20394;-76
2021/06/10 00:46:29;;;;;;;11.05;7.60;;;;;;;20.64;62.30;100188.19;5053557;28;20449;-76
2021/06/10 00:48:57;;;;;;;10.80;7.22;;;;;;;20.86;61.81;100193.09;5053721;28;20049;-76
2021/06/10 00:51:24;;;;;;;11.82;7.15;;;;;;;20.76;61.83;100200.50;5053399;28;20041;-76
2021/06/10 00:53:52;;;;;;;10.23;7.22;;;;;;;20.78;62.04;100195.75;5053498;28;20041;-76
2021/06/10 00:56:23;;;;;;;12.38;7.35;;;;;;;20.69;62.59;100202.13;5053720;28;20094;-76
2021/06/10 00:58:53;;;;;;;9.45;6.93;;;;;;;20.66;62.40;100200.59;5053551;28;20041;-76
2021/06/10 01:01:21;;;;;;;12.25;7.32;;;;;;;20.74;62.40;100194.34;5053313;28;20041;-76
2021/06/10 01:03:55;;;;;;;9.10;7.22;;;;;;;20.78;62.39;100203.88;5053557;28;20504;-76
2021/06/10 01:06:27;;;;;;;8.65;6.88;;;;;;;20.92;61.72;100203.28;5053145;28;20086;-76
2021/06/10 01:09:02;;;;;;;10.10;6.87;;;;;;;20.87;62.10;100194.81;5053404;28;20037;-76
2021/06/10 01:11:39;;;;;;;10.85;6.75;;;;;;;20.88;61.72;100198.38;5053101;28;20401;-76
2021/06/10 01:14:23;;;;;;;11.25;6.70;;;;;;;20.78;62.09;100201.19;5053475;28;20041;-76
2021/06/10 01:16:54;;;;;;;9.43;6.80;;;;;;;20.74;62.20;100205.19;5053198;28;20074;-76
2021/06/10 01:19:46;;;;;;;10.00;6.53;;;;;;;20.72;62.51;100202.66;5053266;28;20098;-76
2021/06/10 01:22:23;;;;;;;9.13;6.65;;;;;;;20.47;63.29;100209.75;5053116;28;20045;-76
2021/06/10 01:24:57;;;;;;;8.30;6.70;;;;;;;20.49;63.60;100207.75;5053365;28;20037;-76
2021/06/10 01:27:32;;;;;;;8.63;6.53;;;;;;;20.37;64.05;100206.25;5052752;28;20045;-76
2021/06/10 01:30:09;;;;;;;8.98;6.85;;;;;;;20.50;63.78;100208.59;5053232;28;20123;-76
2021/06/10 01:32:39;;;;;;;10.30;6.43;;;;;;;20.37;64.10;100208.13;5052840;28;20075;-76
2021/06/10 01:35:08;;;;;;;8.82;7.05;;;;;;;20.24;64.44;100220.19;5052947;28;20044;-75
2021/06/10 01:37:38;;;;;;;10.52;7.38;;;;;;;20.32;64.19;100223.97;5052922;28;20055;-76
2021/06/10 01:40:07;;;;;;;8.43;7.18;;;;;;;20.25;64.51;100237.28;5052783;28;20052;-76
2021/06/10 01:42:39;;;;;;;9.43;6.97;;;;;;;20.37;64.12;100240.63;5052748;28;20099;-76
2021/06/10 01:45:09;;;;;;;8.07;6.55;;;;;;;20.36;64.09;100249.72;5052732;28;20057;-76
2021/06/10 01:47:38;;;;;;;10.82;6.43;;;;;;;20.43;63.66;100265.25;5052575;28;20049;-76
2021/06/10 01:50:08;;;;;;;9.73;6.70;;;;;;;20.43;64.59;100267.97;5052780;28;20128;-76
2021/06/10 01:52:40;;;;;;;11.35;7.38;;;;;;;20.62;68.55;100255.25;5052431;28;20043;-76
2021/06/10 01:55:11;;;;;;;13.90;7.50;;;;;;;20.48;69.54;100251.25;5053090;28;20044;-76
2021/06/10 01:57:42;;;;;;;17.10;8.77;;;;;;;20.32;73.20;100246.50;5052744;28;20045;-76
2021/06/10 02:00:12;;;;;;;17.65;9.05;;;;;;;20.04;75.50;100236.72;5052875;28;20044;-76
2021/06/10 02:02:41;;;;;;;21.65;9.15;;;;;;;19.70;78.08;100224.72;5052787;28;20488;-76
2021/06/10 02:05:11;;;;;;;13.55;7.25;;;;;;;19.55;75.14;100206.38;5052577;28;20095;-76
2021/06/10 02:07:40;;;;;;;20.05;8.98;;;;;;;19.58;78.21;100206.09;5052623;28;20068;-76
2021/06/10 02:10:11;;;;;;;12.88;7.78;;;;;;;19.70;73.14;100197.66;5052804;28;20053;-76
2021/06/10 02:12:43;;;;;;;10.68;6.38;;;;;;;19.71;71.18;100193.09;5052499;28;20391;-76
2021/06/10 02:15:13;;;;;;;9.40;6.67;;;;;;;19.80;69.84;100186.75;5052874;28;20381;-76
2021/06/10 02:17:41;;;;;;;10.73;5.97;;;;;;;19.78;67.72;100196.00;5052279;28;20037;-75
2021/06/10 02:20:14;;;;;;;11.52;6.45;;;;;;;19.66;71.37;100198.09;5052373;28;20041;-76
2021/06/10 02:22:42;;;;;;;10.02;6.05;;;;;;;19.75;69.66;100202.59;5052430;28;20036;-76
2021/06/10 02:25:13;;;;;;;9.98;6.28;;;;;;;19.65;70.95;100201.78;5052576;28;20505;-76
2021/06/10 02:27:43;;;;;;;11.60;7.00;;;;;;;19.54;75.22;100210.09;5052254;28;20140;-77
2021/06/10 02:30:17;;;;;;;12.23;6.57;;;;;;;19.52;76.06;100206.69;5052521;28;20045;-77
2021/06/10 02:32:45;;;;;;;11.52;7.13;;;;;;;19.69;76.68;100214.88;5052213;28;20090;-77
2021/06/10 02:35:14;;;;;;;11.18;7.10;;;;;;;19.56;75.24;100224.34;5052451;28;20071;-77
2021/06/10 02:37:47;;;;;;;11.77;7.20;;;;;;;19.62;74.62;100229.16;5052052;28;20040;-77
2021/06/10 02:40:19;;;;;;;12.20;7.40;;;;;;;19.41;78.50;100227.53;5052389;28;20041;-77
2021/06/10 02:42:49;;;;;;;10.32;7.15;;;;;;;19.21;82.71;100228.63;5052415;28;20049;-77
2021/06/10 02:45:18;;;;;;;11.73;7.80;;;;;;;19.16;85.20;100228.19;5052137;28;20064;-77
2021/06/10 02:47:48;;;;;;;14.57;8.13;;;;;;;19.31;82.80;100221.31;5053290;28;20052;-77
2021/06/10 02:50:18;;;;;;;12.90;7.85;;;;;;;19.36;83.44;100202.78;5056293;28;20037;-77
2021/06/10 02:52:50;;;;;;;11.10;7.78;;;;;;;19.48;82.64;100205.28;5055583;28;20124;-77
2021/06/10 02:55:19;;;;;;;11.80;7.78;;;;;;;19.57;81.35;100210.66;5055839;28;20501;-76
2021/06/10 02:57:52;;;;;;;10.63;8.02;;;;;;;19.70;81.58;100215.75;5055751;28;20102;-76
2021/06/10 03:00:24;;;;;;;10.57;8.32;;;;;;;19.65;82.44;100212.63;5056026;28;20398;-76
2021/06/10 03:02:52;;;;;;;12.05;8.10;;;;;;;19.38;84.05;100208.88;5055684;28;20041;-75
2021/06/10 03:05:22;;;;;;;12.50;9.13;;;;;;;19.27;88.83;100203.66;5055507;28;20045;-75
2021/06/10 03:07:55;;;;;;;14.45;9.77;;;;;;;19.16;90.29;100206.56;5055279;28;20387;-77
2021/06/10 03:10:24;;;;;;;;;;;;;;;19.18;90.60;100209.97;5055845;28;20079;-77
2021/06/10 03:12:54;;;;;;;12.57;9.00;;;;;;;19.22;88.15;100206.00;5055561;28;19928;-76
2021/06/10 03:15:28;;;;;;;14.07;9.32;;;;;;;19.26;88.33;100204.69;5055764;28;20079;-77
2021/06/10 03:17:58;;;;;;;17.60;9.48;;;;;;;19.45;88.88;100214.56;5055488;28;20482;-77
2021/06/10 03:20:26;;;;;;;12.70;9.85;;;;;;;19.50;88.31;100222.22;5055390;28;20076;-77
2021/06/10 03:22:55;;;;;;;11.13;8.90;;;;;;;19.36;87.66;100212.75;5055225;28;20453;-77
2021/06/10 03:25:24;;;;;;;13.38;10.00;;;;;;;19.33;87.64;100216.59;5055371;28;20041;-77
2021/06/10 03:27:54;;;;;;;13.82;9.55;;;;;;;19.38;83.59;100206.19;5054914;28;20116;-77
2021/06/10 03:30:22;;;;;;;14.27;9.48;;;;;;;19.56;81.95;100210.81;5054989;28;20049;-77
2021/06/10 03:32:54;;;;;;;16.85;10.05;;;;;;;19.72;83.04;100208.31;5054944;28;20095;-77
2021/06/10 03:35:24;;;;;;;15.75;9.85;;;;;;;19.62;82.78;100212.94;5055088;28;20044;-77
2021/06/10 03:37:53;;;;;;;16.73;9.40;;;;;;;19.73;82.05;100210.00;5055011;28;20068;-77
2021/06/10 03:40:23;;;;;;;12.77;9.63;;;;;;;19.71;81.68;100201.22;5054941;28;20051;-77
2021/06/10 03:42:54;;;;;;;15.43;9.80;;;;;;;19.65;81.27;100196.38;5054706;28;20079;-77
2021/06/10 03:45:22;;;;;;;13.80;9.90;;;;;;;19.54;84.64;100200.13;5055100;28;20115;-77
2021/06/10 03:47:55;;;;;;;14.25;10.40;;;;;;;19.54;86.86;100204.69;5054647;28;20045;-78
2021/06/10 03:50:23;;;;;;;11.63;9.30;;;;;;;19.67;82.75;100206.03;5054950;28;20421;-77
2021/06/10 03:52:51;;;;;;;16.52;9.98;;;;;;;19.74;86.60;100206.31;5054506;28;20456;-77
2021/06/10 03:55:18;;;;;;;16.75;10.57;;;;;;;19.75;86.05;100210.72;5054682;28;20099;-78
2021/06/10 03:57:47;;;;;;;13.30;10.00;;;;;;;20.01;85.79;100217.09;5054635;28;20094;-77
2021/06/10 04:00:18;;;;;;;13.13;9.90;;;;;;;19.99;86.33;100220.97;5053642;28;20120;-77
2021/06/10 04:02:46;;;;;;;13.32;10.50;;;;;;;19.95;87.74;100219.53;5054563;28;20041;-77
2021/06/10 04:05:14;;;;;;;12.77;10.50;;;;;;;19.97;86.28;100228.34;5054623;28;20044;-77
2021/06/10 04:07:44;;;;;;;14.98;10.93;;;;;;;20.05;85.51;100230.31;5054190;28;20072;-77
2021/06/10 04:10:12;;;;;;;13.10;10.70;;;;;;;20.28;84.54;100236.97;5054615;28;20076;-77
2021/06/10 04:12:40;;;;;;;13.20;10.45;;;;;;;20.10;84.87;100233.41;5054265;28;20049;-77
2021/06/10 04:15:08;;;;;;;14.63;10.93;;;;;;;20.15;84.21;100237.34;5053988;28;20516;-77
2021/06/10 04:17:39;;;;;;;11.73;10.18;;;;;;;19.95;83.80;100241.19;5054283;28;20045;-77
2021/06/10 04:20:08;;;;;;;14.65;11.35;;;;;;;19.99;84.10;100229.94;5054226;28;20068;-76
2021/06/10 04:22:36;;;;;;;12.48;10.25;;;;;;;19.90;84.67;100238.13;5053837;28;20047;-77
2021/06/10 04:25:06;;;;;;;14.75;11.38;;;;;;;19.78;86.35;100236.59;5053995;28;20045;-77
2021/06/10 04:27:34;;;;;;;14.45;10.73;;;;;;;19.77;86.29;100238.47;5053998;28;20073;-78
2021/06/10 04:30:03;;;;;;;17.17;12.02;;;;;;;19.81;87.17;100245.28;5054020;28;20045;-77
2021/06/10 04:32:31;;;;;;;14.60;11.63;;;;;;;19.91;86.81;100253.34;5054055;28;20049;-77
2021/06/10 04:35:02;;;;;;;15.75;11.52;;;;;;;19.98;86.65;100254.47;5053812;28;20041;-76
2021/06/10 04:37:30;;;;;;;14.95;11.85;;;;;;;19.89;86.61;100258.94;5054136;28;20049;-77
2021/06/10 04:39:58;;;;;;;14.82;11.07;;;;;;;20.12;85.09;100269.31;5053780;28;20049;-76
2021/06/10 04:42:26;;;;;;;14.80;10.30;;;;;;;20.14;82.70;100278.13;5053827;28;20140;-77
2021/06/10 04:45:05;;;;;;;13.32;10.38;;;;;;;20.19;82.96;100283.94;5053428;28;20068;-77
2021/06/10 04:47:33;;;;;;;15.48;11.10;;;;;;;19.97;84.18;100275.22;5053477;28;20044;-77
2021/06/10 04:50:03;;;;;;;14.50;11.00;;;;;;;19.85;84.92;100262.06;5053700;28;20049;-77
2021/06/10 04:52:31;;;;;;;12.73;10.10;;;;;;;19.86;83.24;100247.53;5053883;28;20127;-76
2021/06/10 04:54:59;;;;;;;16.55;12.02;;;;;;;19.65;87.75;100240.53;5053388;28;20045;-77
2021/06/10 04:57:27;;;;;;;15.55;9.48;;;;;;;19.64;83.21;100235.28;5053282;28;20095;-76
2021/06/10 04:59:54;;;;;;;12.20;8.70;;;;;;;19.59;83.33;100248.38;5053331;28;20033;-76
2021/06/10 05:02:24;;;;;;;15.02;9.23;;;;;;;19.70;83.66;100253.63;5053513;28;20045;-76
2021/06/10 05:04:52;;;;;;;15.85;12.15;;;;;;;19.64;88.68;100259.63;5053147;28;20041;-76
2021/06/10 05:07:21;;;;;;;14.25;11.68;;;;;;;19.42;89.01;100261.69;5053268;28;20041;-76
2021/06/10 05:09:49;;;;;;;15.05;12.07;;;;;;;19.38;87.99;100270.22;5052822;28;20119;-77
2021/06/10 05:12:19;;;;;;;15.80;11.57;;;;;;;19.51;86.06;100269.91;5053253;28;20040;-77
2021/06/10 05:14:46;;;;;;;16.48;11.40;;;;;;;19.42;86.30;100268.97;5052627;28;20041;-77
2021/06/10 05:17:14;;;;;;;15.80;11.70;;;;;;;19.39;87.42;100261.13;5053229;28;20045;-76
2021/06/10 05:19:42;;;;;;;16.75;12.52;;;;;;;19.82;86.59;100268.66;5053056;28;20041;-77
2021/06/10 05:22:10;;;;;;;14.48;11.15;;;;;;;19.97;85.42;100274.38;5053128;28;20483;-76
2021/06/10 05:24:40;;;;;;;14.73;11.32;;;;;;;20.09;85.18;100281.31;5052947;28;20102;-76
2021/06/10 05:27:09;;;;;;;17.23;11.43;;;;;;;20.12;85.54;100285.56;5052870;28;20041;-78
2021/06/10 05:29:37;;;;;;;15.98;12.35;;;;;;;20.03;85.61;100287.31;5052908;28;20390;-75
2021/06/10 05:32:06;;;;;;;15.88;12.07;;;;;;;20.73;82.71;100290.22;5053138;28;20072;-78
2021/06/10 05:34:34;;;;;;;19.75;13.70;;;;;;;20.65;84.55;100277.44;5052932;28;20402;-77
2021/06/10 05:37:05;;;;;;;18.30;13.18;;;;;;;20.71;85.65;100268.72;5052517;28;20437;-76
2021/06/10 05:39:33;;;;;;;18.08;13.68;;;;;;;22.03;80.99;100258.44;5052784;28;20044;-76
2021/06/10 05:42:02;;;;;;;15.73;13.13;;;;;;;23.85;71.87;100259.84;5052965;28;20048;-75
2021/06/10 05:44:32;;;;;;;16.10;12.77;;;;;;;24.65;68.96;100270.41;5053207;28;20057;-75
2021/06/10 05:47:00;;;;;;;16.08;12.57;;;;;;;24.59;67.67;100276.59;5052893;28;20060;-76
2021/06/10 05:49:27;;;;;;;14.88;12.15;;;;;;;25.67;63.37;100272.47;5052842;28;20049;-75
2021/06/10 05:52:10;;;;;;;15.80;12.48;;;;;;;25.27;64.31;100273.78;5052442;28;20045;-75
2021/06/10 05:54:38;;;;;;;15.25;11.00;;;;;;;25.39;62.99;100271.44;5050819;28;20136;-75
2021/06/10 05:57:14;;;;;;;12.50;9.77;;;;;;;25.50;61.49;100264.66;5052856;28;20037;-76
2021/06/10 05:59:43;;;;;;;13.75;9.75;;;;;;;24.66;62.43;100263.94;5052546;28;20049;-79
2021/06/10 06:02:13;;;;;;;12.13;9.52;;;;;;;25.74;57.09;100266.28;5052738;28;20056;-75
2021/06/10 06:04:44;;;;;;;11.27;8.60;;;;;;;25.30;58.19;100262.50;5052530;28;20448;-75
2021/06/10 06:07:13;;;;;;;11.38;8.70;;;;;;;26.65;53.96;100267.56;5052880;28;20044;-75
2021/06/10 06:09:40;;;;;;;13.40;9.23;;;;;;;27.56;53.78;100257.50;5052550;28;20203;-77
2021/06/10 06:12:11;;;;;;;11.35;9.45;;;;;;;27.33;52.27;100266.88;5052570;28;20136;-77
2021/06/10 06:14:43;;;;;;;11.30;8.65;;;;;;;27.97;52.69;100278.59;5052607;28;20457;-77
2021/06/10 06:17:13;;;;;;;11.60;9.05;;;;;;;27.71;51.91;100269.22;5052726;28;20123;-77
2021/06/10 06:19:41;;;;;;;12.68;9.70;;;;;;;26.24;55.04;100274.44;5052561;28;20436;-76
2021/06/10 06:22:10;;;;;;;14.23;9.57;;;;;;;25.93;57.36;100271.13;5052814;28;20045;-76
2021/06/10 06:24:38;;;;;;;11.52;9.10;;;;;;;25.30;57.95;100280.75;5056642;28;20102;-76
2021/06/10 06:27:07;;;;;;;11.18;9.23;;;;;;;24.48;63.26;100284.16;5056114;28;20041;-75
2021/06/10 06:29:37;;;;;;;9.13;7.65;;;;;;;24.99;58.60;100278.97;5056053;28;20098;-76
2021/06/10 06:32:06;;;;;;;11.50;8.60;;;;;;;27.22;52.34;100275.63;5056040;28;20071;-76
2021/06/10 06:34:33;;;;;;;10.50;8.13;;;;;;;27.52;52.79;100272.66;5055936;28;20075;-75
2021/06/10 06:37:02;;;;;;;12.05;7.72;;;;;;;28.64;47.70;100284.06;5055661;28;20080;-76
2021/06/10 06:39:30;;;;;;;11.35;8.20;;;;;;;28.73;46.64;100291.06;5055956;28;20037;-75
2021/06/10 06:41:58;;;;;;;10.32;7.10;;;;;;;29.52;45.48;100286.63;5054341;28;20045;-75
2021/06/10 06:44:25;;;;;;;11.20;8.10;;;;;;;27.42;51.57;100288.63;5055792;28;20126;-75
2021/06/10 06:46:55;;;;;;;10.13;6.82;;;;;;;28.12;46.62;100284.78;5055707;28;20178;-76
2021/06/10 06:49:23;;;;;;;8.98;6.78;;;;;;;27.66;46.89;100285.41;5055793;28;20048;-75
2021/06/10 06:51:50;;;;;;;9.82;7.18;;;;;;;27.01;48.91;100298.38;5055690;28;20383;-76
2021/06/10 06:54:21;;;;;;;8.85;6.90;;;;;;;26.27;51.23;100288.78;5055689;28;20055;-75
2021/06/10 06:56:49;;;;;;;8.55;6.68;;;;;;;25.82;51.20;100297.06;5055494;28;20143;-76
2021/06/10 06:59:16;;;;;;;8.93;5.78;;;;;;;26.82;48.97;100297.16;5055634;28;20087;-75
2021/06/10 07:01:44;;;;;;;9.23;6.20;;;;;;;25.72;52.13;100301.97;5055864;28;20045;-75
2021/06/10 07:04:13;;;;;;;9.48;6.07;;;;;;;26.03;52.44;100296.28;5055683;28;20047;-75
2021/06/10 07:06:41;;;;;;;6.60;5.53;;;;;;;25.82;52.22;100290.75;5055686;28;20083;-76
2021/06/10 07:09:08;;;;;;;8.55;5.90;;;;;;;25.13;54.24;100301.06;5055069;28;20383;-75
2021/06/10 07:11:51;;;;;;;7.93;5.45;;;;;;;25.10;51.69;100303.13;5055754;28;20391;-75
2021/06/10 07:14:19;;;;;;;;;;;;;;;25.50;51.06;100298.28;5054773;28;20422;-74
2021/06/10 07:16:47;;;;;;;8.15;5.50;;;;;;;25.54;52.06;100298.75;5055030;28;19947;-78
2021/06/10 07:19:16;;;;;;;9.10;5.43;;;;;;;25.58;52.85;100300.94;5055404;28;20083;-75
2021/06/10 07:21:46;;;;;;;7.35;5.40;;;;;;;25.54;50.51;100305.06;5055014;28;20047;-76
2021/06/10 07:24:14;;;;;;;7.88;5.43;;;;;;;25.54;49.61;100312.41;5055455;28;20060;-76
2021/06/10 07:26:44;;;;;;;7.80;5.30;;;;;;;25.69;51.07;100305.06;5055308;28;20482;-76
2021/06/10 07:29:13;;;;;;;10.77;7.63;;;;;;;25.73;52.66;100305.56;5054816;28;20055;-76
2021/06/10 07:31:41;;;;;;;10.55;6.07;;;;;;;25.76;49.82;100297.81;5055055;28;20481;-77
2021/06/10 07:34:09;;;;;;;8.63;6.15;;;;;;;25.66;51.42;100302.69;5054358;28;20120;-76
2021/06/10 07:36:38;;;;;;;8.48;6.10;;;;;;;25.85;52.26;100296.69;5054777;28;20450;-76
2021/06/10 07:39:10;;;;;;;10.27;7.40;;;;;;;25.53;52.67;100292.44;5054814;28;20045;-77
2021/06/10 07:41:43;;;;;;;10.07;7.25;;;;;;;25.35;51.94;100308.34;5054837;28;20098;-77
2021/06/10 07:44:11;;;;;;;9.20;6.70;;;;;;;25.50;54.13;100291.97;5054737;28;20044;-77
2021/06/10 07:46:39;;;;;;;10.52;7.50;;;;;;;25.78;49.56;100295.78;5055139;28;20057;-77
2021/06/10 07:49:19;;;;;;;;;;;;;;;;;;;;;
2021/06/10 07:51:49;;;;;;;11.82;7.68;;;;;;;25.87;51.12;100302.81;5039703;28;20110;-76
2021/06/10 07:54:17;;;;;;;9.65;7.53;;;;;;;26.31;51.90;100301.03;5053537;28;20387;-76
2021/06/10 07:56:45;;;;;;;14.70;9.00;;;;;;;26.28;50.37;100295.97;5054803;28;20052;-76
2021/06/10 07:59:13;;;;;;;11.05;7.90;;;;;;;26.31;51.13;100301.03;5054247;28;20041;-77
2021/06/10 08:01:42;;;;;;;9.82;8.07;;;;;;;26.65;51.14;100306.69;5054705;28;20060;-77
2021/06/10 08:04:16;;;;;;;12.57;8.10;;;;;;;26.91;50.38;100307.97;5053780;28;20143;-76
2021/06/10 08:06:44;;;;;;;10.93;7.80;;;;;;;26.87;49.15;100306.69;5053521;28;20110;-76
2021/06/10 08:09:13;;;;;;;9.55;6.70;;;;;;;27.12;49.24;100299.78;5054073;28;20045;-77
2021/06/10 08:11:42;;;;;;;9.50;6.40;;;;;;;27.09;48.34;100298.25;5054163;28;20565;-76
2021/06/10 08:14:27;;;;;;;12.70;7.30;;;;;;;26.90;49.80;100292.59;5054064;28;20555;-76
2021/06/10 08:16:57;;;;;;;8.52;6.25;;;;;;;26.47;49.10;100295.34;5054288;28;20483;-78
2021/06/10 08:19:25;;;;;;;8.77;6.20;;;;;;;26.13;49.54;100287.78;5054204;28;20041;-76
2021/06/10 08:21:52;;;;;;;8.77;6.43;;;;;;;26.05;50.76;100291.47;5054092;28;20037;-78
2021/06/10 08:24:22;;;;;;;7.97;6.70;;;;;;;25.73;51.17;100292.75;5053993;28;20140;-77
2021/06/10 08:26:49;;;;;;;9.82;6.90;;;;;;;25.76;51.43;100288.78;5053888;28;20413;-77
2021/06/10 08:29:17;;;;;;;10.60;7.22;;;;;;;25.89;51.85;100292.53;5053951;28;20069;-77
2021/06/10 08:31:46;;;;;;;12.23;7.30;;;;;;;25.84;50.98;100305.06;5054172;28;20075;-77
2021/06/10 08:34:14;;;;;;;13.10;7.18;;;;;;;25.96;48.91;100296.22;5053720;28;20040;-77
2021/06/10 08:36:58;;;;;;;10.00;6.93;;;;;;;26.02;49.99;100297.31;5053891;28;20397;-77
2021/06/10 08:39:28;;;;;;;12.35;7.78;;;;;;;26.22;49.75;100292.09;5053835;28;20041;-76
2021/06/10 08:42:20;;;;;;;10.82;7.68;;;;;;;26.19;49.84;100290.59;5053849;28;20445;-78
2021/06/10 08:44:50;;;;;;;10.18;7.18;;;;;;;26.11;47.12;100298.06;5046478;28;20059;-76
2021/06/10 08:47:21;;;;;;;11.25;7.30;;;;;;;25.95;47.78;100296.38;5053545;28;20049;-76
2021/06/10 08:49:58;;;;;;;9.90;7.10;;;;;;;26.13;47.67;100291.34;5053785;28;20045;-76
2021/06/10 08:52:26;;;;;;;11.32;7.10;;;;;;;26.18;47.48;100297.09;5054177;28;20466;-76
2021/06/10 08:54:55;;;;;;;10.88;7.20;;;;;;;26.14;45.56;100293.03;5053376;28;20123;-78
2021/06/10 08:57:47;;;;;;;9.20;7.07;;;;;;;25.95;47.03;100290.91;5053494;28;20041;-76
2021/06/10 09:00:29;;;;;;;16.65;7.15;;;;;;;26.06;45.42;100295.06;5053760;28;20543;-76
2021/06/10 09:06:03;;;;;;;10.38;5.95;;;;;;;26.46;46.24;100294.50;5048808;28;20053;-76
2021/06/10 09:08:47;;;;;;;8.10;5.20;;;;;;;26.75;44.49;100298.16;5053595;28;20041;-75
2021/06/10 09:11:18;;;;;;;8.68;5.75;;;;;;;26.69;45.13;100298.94;5053312;28;20049;-76
2021/06/10 09:13:48;;;;;;;7.45;5.43;;;;;;;26.64;45.50;100296.81;5053408;28;20068;-76
2021/06/10 09:16:32;;;;;;;10.13;6.45;;;;;;;26.46;45.48;100299.13;5052933;28;20478;-76
2021/06/10 09:22:08;;;;;;;8.82;5.88;;;;;;;26.71;44.88;100291.38;5046151;28;20472;-76
2021/06/10 09:24:36;;;;;;;8.57;6.07;;;;;;;26.77;42.99;100288.72;5050021;28;20053;-76
2021/06/10 09:27:08;;;;;;;10.23;5.57;;;;;;;27.14;42.97;100289.47;5052768;28;20045;-75
2021/06/10 09:29:42;;;;;;;8.07;5.75;;;;;;;27.28;41.94;100291.25;5053280;28;20041;-75
2021/06/10 09:32:14;;;;;;;7.70;5.85;;;;;;;27.27;41.72;100291.47;5052578;28;20068;-75
2021/06/10 09:34:48;;;;;;;9.87;6.03;;;;;;;27.29;41.13;100295.69;5052260;28;20119;-75
2021/06/10 09:37:38;;;;;;;7.40;5.30;;;;;;;27.28;40.79;100294.00;5052965;28;20045;-76
2021/06/10 09:40:08;;;;;;;7.90;5.40;;;;;;;27.33;40.67;100298.88;5009476;28;20122;-77
2021/06/10 09:42:39;;;;;;;8.10;4.97;;;;;;;27.30;40.17;100291.03;5053097;28;20040;-74
2021/06/10 09:45:19;;;;;;;7.50;5.60;;;;;;;27.31;39.31;100290.88;5052717;28;20057;-76
2021/06/10 09:47:50;;;;;;;10.82;5.47;;;;;;;27.28;38.88;100295.88;5043097;28;20064;-74
2021/06/10 09:50:21;;;;;;;6.95;5.57;;;;;;;27.33;39.17;100290.66;5052489;28;20401;-77
2021/06/10 09:52:53;;;;;;;9.43;5.78;;;;;;;27.19;38.73;100297.91;5052734;28;20132;-76
2021/06/10 09:55:42;;;;;;;6.28;5.22;;;;;;;27.13;38.54;100296.00;5052853;28;20071;-76
2021/06/10 09:58:28;;;;;;;8.70;5.10;;;;;;;27.09;38.06;100287.31;5056299;28;20045;-76
2021/06/10 10:00:59;;;;;;;8.38;5.47;;;;;;;26.93;39.89;100290.34;5057052;28;20048;-77
2021/06/10 10:03:44;;;;;;;8.80;5.85;;;;;;;27.15;37.45;100282.94;5056946;28;20125;-77
2021/06/10 10:06:19;;;;;;;10.23;5.63;;;;;;;27.23;38.64;100280.06;5056494;28;20049;-78
2021/06/10 10:08:49;;;;;;;10.02;5.45;;;;;;;27.23;39.04;100280.06;5056915;28;20041;-77
2021/06/10 10:11:20;;;;;;;6.63;4.70;;;;;;;27.34;39.32;100284.97;5056599;28;20087;-77
2021/06/10 10:13:51;;;;;;;8.57;4.72;;;;;;;27.20;38.53;100288.66;5056665;28;20045;-77
2021/06/10 10:16:25;;;;;;;6.55;5.05;;;;;;;27.25;38.03;100283.44;5055214;28;20065;-77
2021/06/10 10:18:54;;;;;;;6.93;5.13;;;;;;;26.94;38.11;100282.97;5055087;28;20083;-77
2021/06/10 10:21:55;;;;;;;;;;;;;;;;;;;;;
2021/06/10 10:24:23;;;;;;;7.40;5.57;;;;;;;26.79;38.83;100288.50;5051431;28;20056;-75
2021/06/10 10:26:54;;;;;;;7.10;4.90;;;;;;;26.91;39.69;100283.34;5056467;28;20047;-77
2021/06/10 10:29:23;;;;;;;6.93;5.00;;;;;;;26.69;41.17;100283.38;5055693;28;20579;-75
2021/06/10 10:34:38;;;;;;;8.95;6.45;;;;;;;25.74;44.71;100279.94;5056047;28;20544;-76
2021/06/10 10:37:23;;;;;;;8.80;5.38;;;;;;;26.13;43.96;100276.84;5055920;28;20056;-76
2021/06/10 10:39:53;;;;;;;6.65;4.72;;;;;;;26.26;42.88;100268.81;5054821;28;20065;-76
2021/06/10 10:42:35;;;;;;;7.45;5.07;;;;;;;26.22;42.20;100271.06;5056012;28;20049;-76
2021/06/10 10:45:22;;;;;;;8.77;4.90;;;;;;;26.53;41.77;100278.16;5055705;28;20044;-77
2021/06/10 10:48:08;;;;;;;6.18;5.00;;;;;;;26.73;41.31;100281.94;5056114;28;20041;-76
2021/06/10 10:50:44;;;;;;;6.95;5.20;;;;;;;27.00;41.47;100268.47;5055078;28;20084;-76
2021/06/10 10:53:15;;;;;;;8.05;5.18;;;;;;;27.32;40.17;100262.44;5055560;28;20102;-76
2021/06/10 10:55:43;;;;;;;8.75;5.78;;;;;;;27.53;38.61;100255.19;5055697;28;20064;-74
2021/06/10 10:58:19;;;;;;;8.68;5.25;;;;;;;27.93;38.00;100253.50;5055749;28;20048;-75
2021/06/10 11:01:15;;;;;;;;;;;;;;;;;;;;;
2021/06/10 11:03:44;;;;;;;7.53;4.90;;;;;;;28.33;38.00;100257.22;5052320;28;20045;-75
2021/06/10 11:06:31;;;;;;;8.35;5.25;;;;;;;28.42;36.85;100252.41;5055331;28;20544;-75
2021/06/10 11:09:11;;;;;;;7.68;5.07;;;;;;;28.30;37.41;100246.69;5054680;28;20045;-75
2021/06/10 11:11:56;;;;;;;8.18;4.80;;;;;;;28.44;36.29;100242.06;5055478;28;20041;-76
2021/06/10 11:14:38;;;;;;;7.18;5.10;;;;;;;28.51;37.02;100235.53;5055102;28;20044;-75
2021/06/10 11:17:21;;;;;;;7.68;5.10;;;;;;;28.44;37.13;100242.06;5054994;28;20128;-75
2021/06/10 11:19:57;;;;;;;7.03;4.70;;;;;;;28.08;37.44;100224.00;5055451;28;20041;-77
2021/06/10 11:22:36;;;;;;;7.65;4.93;;;;;;;28.41;37.78;100217.78;5055228;28;20056;-75
2021/06/10 11:25:08;;;;;;;10.55;5.03;;;;;;;28.16;37.79;100210.09;5055143;28;20047;-78
2021/06/10 11:27:41;;;;;;;8.10;5.22;;;;;;;28.07;38.43;100210.50;5055145;28;20041;-77
2021/06/10 11:30:11;;;;;;;9.82;4.85;;;;;;;27.67;39.71;100221.34;5055234;28;20111;-78
2021/06/10 11:33:06;;;;;;;6.93;4.90;;;;;;;27.81;36.82;100209.41;5055149;28;20552;-77
2021/06/10 11:35:41;;;;;;;6.30;5.30;;;;;;;27.83;37.44;100215.50;5055418;28;20091;-77
2021/06/10 11:38:15;;;;;;;6.53;4.88;;;;;;;27.97;37.77;100215.53;5054735;28;20445;-76
2021/06/10 11:40:45;;;;;;;7.22;5.10;;;;;;;27.78;38.40;100206.19;5053981;28;20494;-76
2021/06/10 11:43:15;;;;;;;7.50;4.68;;;;;;;27.95;39.28;100202.88;5054741;28;20099;-76
2021/06/10 11:45:47;;;;;;;7.45;5.47;;;;;;;28.15;38.45;100196.63;5054635;28;20135;-76
2021/06/10 11:48:37;;;;;;;6.35;5.40;;;;;;;27.78;37.70;100196.09;5054444;28;20129;-76
2021/06/10 11:51:06;;;;;;;7.60;5.50;;;;;;;27.45;38.04;100179.50;5054980;28;20037;-77
2021/06/10 11:53:34;;;;;;;8.85;5.63;;;;;;;27.54;39.45;100177.44;5054747;28;20052;-75